sensor_id;sensor_type;location;lat;lon;timestamp;temperature;humidity
20714;DHT22;10518;50.742;4.226;2023-07-31T00:01:14;18.60;99.90
20714;DHT22;10518;50.742;4.226;2023-07-31T00:03:40;18.50;99.90
20714;DHT22;10518;50.742;4.226;2023-07-31T00:06:05;18.70;99.90
20714;DHT22;10518;50.742;4.226;2023-07-31T00:08:31;18.70;99.90
20714;DHT22;10518;50.742;4.226;2023-07-31T00:10:56;18.90;99.90
20714;DHT22;10518;50.742;4.226;2023-07-31T00:13:22;19.10;99.90
20714;DHT22;10518;50.742;4.226;2023-07-31T00:15:48;18.90;99.90
20714;DHT22;10518;50.742;4.226;2023-07-31T00:18:14;18.90;99.90
20714;DHT22;10518;50.742;4.226;2023-07-31T00:20:39;19.10;99.90
20714;DHT22;10518;50.742;4.226;2023-07-31T00:23:05;19.00;99.90
20714;DHT22;10518;50.742;4.226;2023-07-31T00:25:30;18.90;99.90
20714;DHT22;10518;50.742;4.226;2023-07-31T00:27:56;18.80;99.90
20714;DHT22;10518;50.742;4.226;2023-07-31T00:30:21;18.90;99.90
20714;DHT22;10518;50.742;4.226;2023-07-31T00:32:47;18.80;99.90
20714;DHT22;10518;50.742;4.226;2023-07-31T00:35:13;18.80;99.90
20714;DHT22;10518;50.742;4.226;2023-07-31T00:37:39;18.80;99.90
20714;DHT22;10518;50.742;4.226;2023-07-31T00:40:04;18.70;99.90
20714;DHT22;10518;50.742;4.226;2023-07-31T00:42:30;18.70;99.90
20714;DHT22;10518;50.742;4.226;2023-07-31T00:44:56;18.80;99.90
20714;DHT22;10518;50.742;4.226;2023-07-31T00:47:22;18.80;99.90
20714;DHT22;10518;50.742;4.226;2023-07-31T00:49:48;18.70;99.90
20714;DHT22;10518;50.742;4.226;2023-07-31T00:52:13;18.80;99.90
20714;DHT22;10518;50.742;4.226;2023-07-31T00:54:39;18.80;99.90
20714;DHT22;10518;50.742;4.226;2023-07-31T00:57:05;18.60;99.90
20714;DHT22;10518;50.742;4.226;2023-07-31T00:59:32;18.60;99.90
20714;DHT22;10518;50.742;4.226;2023-07-31T01:01:58;18.60;99.90
20714;DHT22;10518;50.742;4.226;2023-07-31T01:04:24;18.80;99.90
20714;DHT22;10518;50.742;4.226;2023-07-31T01:12:32;18.60;99.90
20714;DHT22;10518;50.742;4.226;2023-07-31T01:15:07;18.50;99.90
20714;DHT22;10518;50.742;4.226;2023-07-31T01:17:36;18.60;99.90
20714;DHT22;10518;50.742;4.226;2023-07-31T01:20:05;18.50;99.90
20714;DHT22;10518;50.742;4.226;2023-07-31T01:26:45;18.50;99.90
20714;DHT22;10518;50.742;4.226;2023-07-31T01:29:00;18.60;99.90
20714;DHT22;10518;50.742;4.226;2023-07-31T01:31:29;18.70;99.90
20714;DHT22;10518;50.742;4.226;2023-07-31T01:33:59;18.60;99.90
20714;DHT22;10518;50.742;4.226;2023-07-31T01:36:26;18.70;99.90
20714;DHT22;10518;50.742;4.226;2023-07-31T01:38:52;18.60;99.90
20714;DHT22;10518;50.742;4.226;2023-07-31T01:41:18;18.60;99.90
20714;DHT22;10518;50.742;4.226;2023-07-31T01:43:44;18.60;99.90
20714;DHT22;10518;50.742;4.226;2023-07-31T01:46:10;18.50;99.90
20714;DHT22;10518;50.742;4.226;2023-07-31T01:48:35;18.40;99.90
20714;DHT22;10518;50.742;4.226;2023-07-31T01:51:02;18.30;99.90
20714;DHT22;10518;50.742;4.226;2023-07-31T01:53:28;18.40;99.90
20714;DHT22;10518;50.742;4.226;2023-07-31T01:55:54;18.50;99.90
20714;DHT22;10518;50.742;4.226;2023-07-31T01:58:19;18.50;99.90
20714;DHT22;10518;50.742;4.226;2023-07-31T02:00:45;18.60;99.90
20714;DHT22;10518;50.742;4.226;2023-07-31T02:03:11;18.50;99.90
20714;DHT22;10518;50.742;4.226;2023-07-31T02:05:47;18.50;99.90
20714;DHT22;10518;50.742;4.226;2023-07-31T02:08:13;18.60;99.90
20714;DHT22;10518;50.742;4.226;2023-07-31T02:10:39;18.60;99.90
20714;DHT22;10518;50.742;4.226;2023-07-31T02:13:05;18.80;99.90
20714;DHT22;10518;50.742;4.226;2023-07-31T02:15:31;18.90;99.90
20714;DHT22;10518;50.742;4.226;2023-07-31T02:17:56;18.80;99.90
20714;DHT22;10518;50.742;4.226;2023-07-31T02:20:22;18.70;99.90
20714;DHT22;10518;50.742;4.226;2023-07-31T02:22:48;18.60;99.90
20714;DHT22;10518;50.742;4.226;2023-07-31T02:25:13;18.80;99.90
20714;DHT22;10518;50.742;4.226;2023-07-31T02:27:39;18.60;99.90
20714;DHT22;10518;50.742;4.226;2023-07-31T02:30:05;18.50;99.90
20714;DHT22;10518;50.742;4.226;2023-07-31T02:32:31;18.70;99.90
20714;DHT22;10518;50.742;4.226;2023-07-31T02:34:56;18.60;99.90
20714;DHT22;10518;50.742;4.226;2023-07-31T02:37:23;18.70;99.90
20714;DHT22;10518;50.742;4.226;2023-07-31T02:39:48;18.60;99.90
20714;DHT22;10518;50.742;4.226;2023-07-31T02:42:14;18.70;99.90
20714;DHT22;10518;50.742;4.226;2023-07-31T02:44:40;18.80;99.90
20714;DHT22;10518;50.742;4.226;2023-07-31T02:47:06;18.90;99.90
20714;DHT22;10518;50.742;4.226;2023-07-31T02:49:31;18.80;99.90
20714;DHT22;10518;50.742;4.226;2023-07-31T02:51:57;18.50;99.90
20714;DHT22;10518;50.742;4.226;2023-07-31T02:54:22;18.70;99.90
20714;DHT22;10518;50.742;4.226;2023-07-31T02:56:48;18.50;99.90
20714;DHT22;10518;50.742;4.226;2023-07-31T02:59:14;18.70;99.90
20714;DHT22;10518;50.742;4.226;2023-07-31T03:01:40;18.80;99.90
20714;DHT22;10518;50.742;4.226;2023-07-31T03:04:05;18.70;99.90
20714;DHT22;10518;50.742;4.226;2023-07-31T03:06:31;18.60;99.90
20714;DHT22;10518;50.742;4.226;2023-07-31T03:08:56;18.60;99.90
20714;DHT22;10518;50.742;4.226;2023-07-31T03:11:22;18.50;99.90
20714;DHT22;10518;50.742;4.226;2023-07-31T03:13:47;18.60;99.90
20714;DHT22;10518;50.742;4.226;2023-07-31T03:16:13;18.80;99.90
20714;DHT22;10518;50.742;4.226;2023-07-31T03:18:39;18.70;99.90
20714;DHT22;10518;50.742;4.226;2023-07-31T03:21:04;18.60;99.90
20714;DHT22;10518;50.742;4.226;2023-07-31T03:23:30;18.70;99.90
20714;DHT22;10518;50.742;4.226;2023-07-31T03:26:00;18.60;99.90
20714;DHT22;10518;50.742;4.226;2023-07-31T03:28:27;18.70;99.90
20714;DHT22;10518;50.742;4.226;2023-07-31T03:30:53;18.80;99.90
20714;DHT22;10518;50.742;4.226;2023-07-31T03:33:18;18.80;99.90
20714;DHT22;10518;50.742;4.226;2023-07-31T03:35:44;18.80;99.90
20714;DHT22;10518;50.742;4.226;2023-07-31T03:38:10;18.60;99.90
20714;DHT22;10518;50.742;4.226;2023-07-31T03:40:35;18.50;99.90
20714;DHT22;10518;50.742;4.226;2023-07-31T03:43:01;18.50;99.90
20714;DHT22;10518;50.742;4.226;2023-07-31T03:45:27;18.30;99.90
20714;DHT22;10518;50.742;4.226;2023-07-31T03:47:52;18.30;99.90
20714;DHT22;10518;50.742;4.226;2023-07-31T03:50:19;18.50;99.90
20714;DHT22;10518;50.742;4.226;2023-07-31T03:52:45;18.40;99.90
20714;DHT22;10518;50.742;4.226;2023-07-31T03:55:11;18.50;99.90
20714;DHT22;10518;50.742;4.226;2023-07-31T03:57:36;18.40;99.90
20714;DHT22;10518;50.742;4.226;2023-07-31T04:00:02;18.50;99.90
20714;DHT22;10518;50.742;4.226;2023-07-31T04:02:28;18.60;99.90
20714;DHT22;10518;50.742;4.226;2023-07-31T04:04:53;18.50;99.90
20714;DHT22;10518;50.742;4.226;2023-07-31T04:07:19;18.50;99.90
20714;DHT22;10518;50.742;4.226;2023-07-31T04:09:44;18.30;99.90
20714;DHT22;10518;50.742;4.226;2023-07-31T04:12:10;18.40;99.90
20714;DHT22;10518;50.742;4.226;2023-07-31T04:14:35;18.50;99.90
20714;DHT22;10518;50.742;4.226;2023-07-31T04:17:01;18.60;99.90
20714;DHT22;10518;50.742;4.226;2023-07-31T04:19:26;18.70;99.90
20714;DHT22;10518;50.742;4.226;2023-07-31T04:21:52;18.50;99.90
20714;DHT22;10518;50.742;4.226;2023-07-31T04:24:18;18.40;99.90
20714;DHT22;10518;50.742;4.226;2023-07-31T04:26:50;18.60;99.90
20714;DHT22;10518;50.742;4.226;2023-07-31T04:29:15;18.50;99.90
20714;DHT22;10518;50.742;4.226;2023-07-31T04:31:41;18.40;99.90
20714;DHT22;10518;50.742;4.226;2023-07-31T04:34:07;18.50;99.90
20714;DHT22;10518;50.742;4.226;2023-07-31T04:36:33;18.50;99.90
20714;DHT22;10518;50.742;4.226;2023-07-31T04:38:59;18.40;99.90
20714;DHT22;10518;50.742;4.226;2023-07-31T04:41:25;18.30;99.90
20714;DHT22;10518;50.742;4.226;2023-07-31T04:43:50;18.40;99.90
20714;DHT22;10518;50.742;4.226;2023-07-31T04:46:16;18.40;99.90
20714;DHT22;10518;50.742;4.226;2023-07-31T04:48:42;18.40;99.90
20714;DHT22;10518;50.742;4.226;2023-07-31T04:51:08;18.50;99.90
20714;DHT22;10518;50.742;4.226;2023-07-31T04:53:35;18.40;99.90
20714;DHT22;10518;50.742;4.226;2023-07-31T04:56:00;18.30;99.90
20714;DHT22;10518;50.742;4.226;2023-07-31T04:58:26;18.30;99.90
20714;DHT22;10518;50.742;4.226;2023-07-31T05:00:51;18.30;99.90
20714;DHT22;10518;50.742;4.226;2023-07-31T05:03:17;18.40;99.90
20714;DHT22;10518;50.742;4.226;2023-07-31T05:05:43;18.50;99.90
20714;DHT22;10518;50.742;4.226;2023-07-31T05:08:08;18.60;99.90
20714;DHT22;10518;50.742;4.226;2023-07-31T05:10:34;18.50;99.90
20714;DHT22;10518;50.742;4.226;2023-07-31T05:12:59;18.50;99.90
20714;DHT22;10518;50.742;4.226;2023-07-31T05:15:25;18.40;99.90
20714;DHT22;10518;50.742;4.226;2023-07-31T05:17:50;18.20;99.90
20714;DHT22;10518;50.742;4.226;2023-07-31T05:20:16;18.00;99.90
20714;DHT22;10518;50.742;4.226;2023-07-31T05:22:42;17.80;99.90
20714;DHT22;10518;50.742;4.226;2023-07-31T05:25:08;17.80;99.90
20714;DHT22;10518;50.742;4.226;2023-07-31T05:27:33;18.00;99.90
20714;DHT22;10518;50.742;4.226;2023-07-31T05:29:59;18.10;99.90
20714;DHT22;10518;50.742;4.226;2023-07-31T05:32:25;18.10;99.90
20714;DHT22;10518;50.742;4.226;2023-07-31T05:34:51;18.20;99.90
20714;DHT22;10518;50.742;4.226;2023-07-31T05:37:18;18.20;99.90
20714;DHT22;10518;50.742;4.226;2023-07-31T05:39:43;18.10;99.90
20714;DHT22;10518;50.742;4.226;2023-07-31T05:42:09;18.00;99.90
20714;DHT22;10518;50.742;4.226;2023-07-31T05:44:35;18.20;99.90
20714;DHT22;10518;50.742;4.226;2023-07-31T05:47:00;18.40;99.90
20714;DHT22;10518;50.742;4.226;2023-07-31T05:49:26;18.30;99.90
20714;DHT22;10518;50.742;4.226;2023-07-31T05:51:51;18.30;99.90
20714;DHT22;10518;50.742;4.226;2023-07-31T05:54:17;18.10;99.90
20714;DHT22;10518;50.742;4.226;2023-07-31T05:56:43;18.00;99.90
20714;DHT22;10518;50.742;4.226;2023-07-31T05:59:09;17.90;99.90
20714;DHT22;10518;50.742;4.226;2023-07-31T06:01:35;18.10;99.90
20714;DHT22;10518;50.742;4.226;2023-07-31T06:04:01;18.00;99.90
20714;DHT22;10518;50.742;4.226;2023-07-31T06:06:28;18.10;99.90
20714;DHT22;10518;50.742;4.226;2023-07-31T06:08:53;18.10;99.90
20714;DHT22;10518;50.742;4.226;2023-07-31T06:11:20;18.10;99.90
20714;DHT22;10518;50.742;4.226;2023-07-31T06:13:46;18.40;99.90
20714;DHT22;10518;50.742;4.226;2023-07-31T06:16:13;18.40;99.90
20714;DHT22;10518;50.742;4.226;2023-07-31T06:18:40;18.30;99.90
20714;DHT22;10518;50.742;4.226;2023-07-31T06:21:06;18.20;99.90
20714;DHT22;10518;50.742;4.226;2023-07-31T06:23:31;18.30;99.90
20714;DHT22;10518;50.742;4.226;2023-07-31T06:25:57;18.20;99.90
20714;DHT22;10518;50.742;4.226;2023-07-31T06:28:28;18.10;99.90
20714;DHT22;10518;50.742;4.226;2023-07-31T06:30:54;18.20;99.90
20714;DHT22;10518;50.742;4.226;2023-07-31T06:33:20;18.40;99.90
20714;DHT22;10518;50.742;4.226;2023-07-31T06:35:45;18.50;99.90
20714;DHT22;10518;50.742;4.226;2023-07-31T06:38:11;18.60;99.90
20714;DHT22;10518;50.742;4.226;2023-07-31T06:40:37;18.50;99.90
20714;DHT22;10518;50.742;4.226;2023-07-31T06:43:02;18.60;99.90
20714;DHT22;10518;50.742;4.226;2023-07-31T06:45:34;18.70;99.90
20714;DHT22;10518;50.742;4.226;2023-07-31T06:48:00;18.70;99.90
20714;DHT22;10518;50.742;4.226;2023-07-31T06:50:36;18.70;99.90
20714;DHT22;10518;50.742;4.226;2023-07-31T06:53:02;18.60;99.90
20714;DHT22;10518;50.742;4.226;2023-07-31T06:55:28;18.90;99.90
20714;DHT22;10518;50.742;4.226;2023-07-31T06:57:55;19.30;99.90
20714;DHT22;10518;50.742;4.226;2023-07-31T07:00:21;19.50;99.90
20714;DHT22;10518;50.742;4.226;2023-07-31T07:02:47;19.50;99.90
20714;DHT22;10518;50.742;4.226;2023-07-31T07:05:13;19.40;99.90
20714;DHT22;10518;50.742;4.226;2023-07-31T07:07:40;19.50;99.90
20714;DHT22;10518;50.742;4.226;2023-07-31T07:10:06;19.50;99.90
20714;DHT22;10518;50.742;4.226;2023-07-31T07:12:32;19.70;99.90
20714;DHT22;10518;50.742;4.226;2023-07-31T07:14:59;19.50;99.90
20714;DHT22;10518;50.742;4.226;2023-07-31T07:17:28;19.60;99.90
20714;DHT22;10518;50.742;4.226;2023-07-31T07:19:56;19.50;99.90
20714;DHT22;10518;50.742;4.226;2023-07-31T07:22:22;19.70;99.90
20714;DHT22;10518;50.742;4.226;2023-07-31T07:24:48;20.00;99.90
20714;DHT22;10518;50.742;4.226;2023-07-31T07:27:14;19.60;99.90
20714;DHT22;10518;50.742;4.226;2023-07-31T07:29:40;19.50;99.90
20714;DHT22;10518;50.742;4.226;2023-07-31T07:32:06;19.60;99.90
20714;DHT22;10518;50.742;4.226;2023-07-31T07:34:32;19.70;99.90
20714;DHT22;10518;50.742;4.226;2023-07-31T07:36:57;19.70;99.90
20714;DHT22;10518;50.742;4.226;2023-07-31T07:39:23;19.50;99.90
20714;DHT22;10518;50.742;4.226;2023-07-31T07:41:48;19.90;99.90
20714;DHT22;10518;50.742;4.226;2023-07-31T07:44:14;20.00;99.90
20714;DHT22;10518;50.742;4.226;2023-07-31T07:46:40;19.80;99.90
20714;DHT22;10518;50.742;4.226;2023-07-31T07:49:06;19.80;99.90
20714;DHT22;10518;50.742;4.226;2023-07-31T07:51:31;19.70;99.90
20714;DHT22;10518;50.742;4.226;2023-07-31T07:54:00;19.70;99.90
20714;DHT22;10518;50.742;4.226;2023-07-31T07:56:26;19.50;99.90
20714;DHT22;10518;50.742;4.226;2023-07-31T07:58:53;19.40;99.90
20714;DHT22;10518;50.742;4.226;2023-07-31T08:01:19;19.40;99.90
20714;DHT22;10518;50.742;4.226;2023-07-31T08:03:44;19.30;99.90
20714;DHT22;10518;50.742;4.226;2023-07-31T08:06:10;19.30;99.90
20714;DHT22;10518;50.742;4.226;2023-07-31T08:08:36;19.40;99.90
20714;DHT22;10518;50.742;4.226;2023-07-31T08:11:02;19.50;99.90
20714;DHT22;10518;50.742;4.226;2023-07-31T08:13:28;19.70;99.90
20714;DHT22;10518;50.742;4.226;2023-07-31T08:15:53;19.90;99.90
20714;DHT22;10518;50.742;4.226;2023-07-31T08:18:19;20.00;99.90
20714;DHT22;10518;50.742;4.226;2023-07-31T08:20:45;19.70;99.90
20714;DHT22;10518;50.742;4.226;2023-07-31T08:23:11;19.40;99.90
20714;DHT22;10518;50.742;4.226;2023-07-31T08:25:37;19.50;99.90
20714;DHT22;10518;50.742;4.226;2023-07-31T08:28:04;19.60;99.90
20714;DHT22;10518;50.742;4.226;2023-07-31T08:30:29;19.70;99.90
20714;DHT22;10518;50.742;4.226;2023-07-31T08:32:55;19.70;99.90
20714;DHT22;10518;50.742;4.226;2023-07-31T08:35:21;19.70;99.90
20714;DHT22;10518;50.742;4.226;2023-07-31T08:37:46;19.70;99.90
20714;DHT22;10518;50.742;4.226;2023-07-31T08:40:12;19.70;99.90
20714;DHT22;10518;50.742;4.226;2023-07-31T08:42:46;19.80;99.90
20714;DHT22;10518;50.742;4.226;2023-07-31T08:45:16;19.50;99.90
20714;DHT22;10518;50.742;4.226;2023-07-31T08:47:47;19.50;99.90
20714;DHT22;10518;50.742;4.226;2023-07-31T08:50:14;19.70;99.90
20714;DHT22;10518;50.742;4.226;2023-07-31T08:52:40;19.70;99.90
20714;DHT22;10518;50.742;4.226;2023-07-31T08:55:07;19.90;99.90
20714;DHT22;10518;50.742;4.226;2023-07-31T08:57:35;19.90;99.90
20714;DHT22;10518;50.742;4.226;2023-07-31T09:00:01;19.90;99.90
20714;DHT22;10518;50.742;4.226;2023-07-31T09:02:34;19.70;99.90
20714;DHT22;10518;50.742;4.226;2023-07-31T09:05:03;19.80;99.90
20714;DHT22;10518;50.742;4.226;2023-07-31T09:07:31;20.00;99.90
20714;DHT22;10518;50.742;4.226;2023-07-31T09:09:59;20.00;99.90
20714;DHT22;10518;50.742;4.226;2023-07-31T09:12:25;20.20;99.90
20714;DHT22;10518;50.742;4.226;2023-07-31T09:14:51;20.40;99.90
20714;DHT22;10518;50.742;4.226;2023-07-31T09:17:37;20.70;99.90
20714;DHT22;10518;50.742;4.226;2023-07-31T09:20:19;20.90;99.90
20714;DHT22;10518;50.742;4.226;2023-07-31T09:22:47;20.70;99.90
20714;DHT22;10518;50.742;4.226;2023-07-31T09:25:26;20.50;99.90
20714;DHT22;10518;50.742;4.226;2023-07-31T09:27:57;20.60;99.90
20714;DHT22;10518;50.742;4.226;2023-07-31T09:30:24;20.70;99.90
20714;DHT22;10518;50.742;4.226;2023-07-31T09:32:50;20.70;99.90
20714;DHT22;10518;50.742;4.226;2023-07-31T09:35:30;20.60;99.90
20714;DHT22;10518;50.742;4.226;2023-07-31T09:38:01;20.70;99.90
20714;DHT22;10518;50.742;4.226;2023-07-31T09:43:00;21.10;99.90
20714;DHT22;10518;50.742;4.226;2023-07-31T09:45:26;21.00;99.90
20714;DHT22;10518;50.742;4.226;2023-07-31T09:47:52;20.90;99.90
20714;DHT22;10518;50.742;4.226;2023-07-31T09:50:19;21.10;99.90
20714;DHT22;10518;50.742;4.226;2023-07-31T09:52:45;21.00;99.90
20714;DHT22;10518;50.742;4.226;2023-07-31T09:55:11;21.10;99.90
20714;DHT22;10518;50.742;4.226;2023-07-31T09:57:40;21.00;99.90
20714;DHT22;10518;50.742;4.226;2023-07-31T10:00:07;21.00;99.90
20714;DHT22;10518;50.742;4.226;2023-07-31T10:02:35;21.00;99.90
20714;DHT22;10518;50.742;4.226;2023-07-31T10:05:03;21.20;99.90
20714;DHT22;10518;50.742;4.226;2023-07-31T10:07:30;21.10;99.90
20714;DHT22;10518;50.742;4.226;2023-07-31T10:09:58;21.30;99.90
20714;DHT22;10518;50.742;4.226;2023-07-31T10:12:26;21.30;99.90
20714;DHT22;10518;50.742;4.226;2023-07-31T10:14:54;21.20;99.90
20714;DHT22;10518;50.742;4.226;2023-07-31T10:17:22;21.40;99.90
20714;DHT22;10518;50.742;4.226;2023-07-31T10:19:49;21.40;99.90
20714;DHT22;10518;50.742;4.226;2023-07-31T10:22:15;21.60;99.90
20714;DHT22;10518;50.742;4.226;2023-07-31T10:24:45;21.40;99.90
20714;DHT22;10518;50.742;4.226;2023-07-31T10:27:12;21.70;99.90
20714;DHT22;10518;50.742;4.226;2023-07-31T10:29:39;21.80;99.90
20714;DHT22;10518;50.742;4.226;2023-07-31T10:32:06;21.70;99.90
20714;DHT22;10518;50.742;4.226;2023-07-31T10:34:34;21.70;99.90
20714;DHT22;10518;50.742;4.226;2023-07-31T10:42:54;21.20;99.90
20714;DHT22;10518;50.742;4.226;2023-07-31T10:45:42;20.90;99.90
20714;DHT22;10518;50.742;4.226;2023-07-31T10:48:17;21.30;99.90
20714;DHT22;10518;50.742;4.226;2023-07-31T10:50:55;21.50;99.90
20714;DHT22;10518;50.742;4.226;2023-07-31T10:53:31;21.40;99.90
20714;DHT22;10518;50.742;4.226;2023-07-31T10:56:05;21.60;99.90
20714;DHT22;10518;50.742;4.226;2023-07-31T10:58:31;21.40;99.90
20714;DHT22;10518;50.742;4.226;2023-07-31T11:00:59;21.70;99.90
20714;DHT22;10518;50.742;4.226;2023-07-31T11:03:27;22.00;99.90
20714;DHT22;10518;50.742;4.226;2023-07-31T11:06:02;21.90;99.90
20714;DHT22;10518;50.742;4.226;2023-07-31T11:08:35;21.90;99.90
20714;DHT22;10518;50.742;4.226;2023-07-31T11:16:07;21.90;99.90
20714;DHT22;10518;50.742;4.226;2023-07-31T11:18:32;21.70;99.90
20714;DHT22;10518;50.742;4.226;2023-07-31T11:20:58;21.60;99.90
20714;DHT22;10518;50.742;4.226;2023-07-31T11:23:24;21.50;99.90
20714;DHT22;10518;50.742;4.226;2023-07-31T11:25:50;21.60;99.90
20714;DHT22;10518;50.742;4.226;2023-07-31T11:28:17;21.60;99.90
20714;DHT22;10518;50.742;4.226;2023-07-31T11:30:44;21.80;99.90
20714;DHT22;10518;50.742;4.226;2023-07-31T11:33:11;21.80;99.90
20714;DHT22;10518;50.742;4.226;2023-07-31T11:35:45;21.70;99.90
20714;DHT22;10518;50.742;4.226;2023-07-31T11:38:32;21.60;99.90
20714;DHT22;10518;50.742;4.226;2023-07-31T11:41:00;21.80;99.90
20714;DHT22;10518;50.742;4.226;2023-07-31T11:43:28;21.80;99.90
20714;DHT22;10518;50.742;4.226;2023-07-31T11:45:58;21.60;99.90
20714;DHT22;10518;50.742;4.226;2023-07-31T11:48:25;21.60;99.90
20714;DHT22;10518;50.742;4.226;2023-07-31T11:50:52;21.70;99.90
20714;DHT22;10518;50.742;4.226;2023-07-31T11:55:54;21.80;99.90
20714;DHT22;10518;50.742;4.226;2023-07-31T11:58:21;22.00;99.90
20714;DHT22;10518;50.742;4.226;2023-07-31T12:00:47;21.90;99.90
20714;DHT22;10518;50.742;4.226;2023-07-31T12:03:13;22.20;99.90
20714;DHT22;10518;50.742;4.226;2023-07-31T12:05:39;22.50;99.90
20714;DHT22;10518;50.742;4.226;2023-07-31T12:08:11;22.50;99.90
20714;DHT22;10518;50.742;4.226;2023-07-31T12:10:37;22.50;99.90
20714;DHT22;10518;50.742;4.226;2023-07-31T12:15:42;22.40;99.90
20714;DHT22;10518;50.742;4.226;2023-07-31T12:18:10;22.40;99.90
20714;DHT22;10518;50.742;4.226;2023-07-31T12:20:43;22.50;99.90
20714;DHT22;10518;50.742;4.226;2023-07-31T12:23:20;22.60;99.90
20714;DHT22;10518;50.742;4.226;2023-07-31T12:26:10;22.60;99.90
20714;DHT22;10518;50.742;4.226;2023-07-31T12:28:43;22.50;99.90
20714;DHT22;10518;50.742;4.226;2023-07-31T12:31:11;22.60;99.90
20714;DHT22;10518;50.742;4.226;2023-07-31T12:33:38;22.50;99.90
20714;DHT22;10518;50.742;4.226;2023-07-31T12:36:09;22.30;99.90
20714;DHT22;10518;50.742;4.226;2023-07-31T12:38:35;22.50;99.90
20714;DHT22;10518;50.742;4.226;2023-07-31T12:41:00;22.50;99.90
20714;DHT22;10518;50.742;4.226;2023-07-31T12:43:26;22.60;99.90
20714;DHT22;10518;50.742;4.226;2023-07-31T12:45:53;22.70;99.90
20714;DHT22;10518;50.742;4.226;2023-07-31T12:48:19;22.80;99.90
20714;DHT22;10518;50.742;4.226;2023-07-31T12:50:44;22.80;99.90
20714;DHT22;10518;50.742;4.226;2023-07-31T12:53:10;22.90;99.90
20714;DHT22;10518;50.742;4.226;2023-07-31T12:55:35;22.60;99.90
20714;DHT22;10518;50.742;4.226;2023-07-31T12:58:02;22.40;99.90
20714;DHT22;10518;50.742;4.226;2023-07-31T13:00:28;22.10;99.90
20714;DHT22;10518;50.742;4.226;2023-07-31T13:02:53;22.30;99.90
20714;DHT22;10518;50.742;4.226;2023-07-31T13:05:20;22.40;99.90
20714;DHT22;10518;50.742;4.226;2023-07-31T13:07:46;22.20;99.90
20714;DHT22;10518;50.742;4.226;2023-07-31T13:10:12;22.00;99.90
20714;DHT22;10518;50.742;4.226;2023-07-31T13:12:37;21.80;99.90
20714;DHT22;10518;50.742;4.226;2023-07-31T13:15:06;21.50;99.90
20714;DHT22;10518;50.742;4.226;2023-07-31T13:17:32;21.40;99.90
20714;DHT22;10518;50.742;4.226;2023-07-31T13:19:58;21.20;99.90
20714;DHT22;10518;50.742;4.226;2023-07-31T13:22:24;21.00;99.90
20714;DHT22;10518;50.742;4.226;2023-07-31T13:24:49;20.90;99.90
20714;DHT22;10518;50.742;4.226;2023-07-31T13:27:15;20.80;99.90
20714;DHT22;10518;50.742;4.226;2023-07-31T13:29:44;20.70;99.90
20714;DHT22;10518;50.742;4.226;2023-07-31T13:32:10;20.50;99.90
20714;DHT22;10518;50.742;4.226;2023-07-31T13:34:35;20.40;99.90
20714;DHT22;10518;50.742;4.226;2023-07-31T13:37:01;20.40;99.90
20714;DHT22;10518;50.742;4.226;2023-07-31T13:39:27;20.40;99.90
20714;DHT22;10518;50.742;4.226;2023-07-31T13:41:52;20.20;99.90
20714;DHT22;10518;50.742;4.226;2023-07-31T13:44:18;20.40;99.90
20714;DHT22;10518;50.742;4.226;2023-07-31T13:46:43;20.60;99.90
20714;DHT22;10518;50.742;4.226;2023-07-31T13:49:09;20.50;99.90
20714;DHT22;10518;50.742;4.226;2023-07-31T13:51:34;20.30;99.90
20714;DHT22;10518;50.742;4.226;2023-07-31T13:54:01;20.50;99.90
20714;DHT22;10518;50.742;4.226;2023-07-31T13:56:26;20.50;99.90
20714;DHT22;10518;50.742;4.226;2023-07-31T13:58:52;20.60;99.90
20714;DHT22;10518;50.742;4.226;2023-07-31T14:01:18;20.40;99.90
20714;DHT22;10518;50.742;4.226;2023-07-31T14:03:43;20.30;99.90
20714;DHT22;10518;50.742;4.226;2023-07-31T14:06:09;20.20;99.90
20714;DHT22;10518;50.742;4.226;2023-07-31T14:08:34;20.20;99.90
20714;DHT22;10518;50.742;4.226;2023-07-31T14:11:00;20.20;99.90
20714;DHT22;10518;50.742;4.226;2023-07-31T14:13:25;20.30;99.90
20714;DHT22;10518;50.742;4.226;2023-07-31T14:15:51;20.50;99.90
20714;DHT22;10518;50.742;4.226;2023-07-31T14:18:17;20.60;99.90
20714;DHT22;10518;50.742;4.226;2023-07-31T14:20:43;20.60;99.90
20714;DHT22;10518;50.742;4.226;2023-07-31T14:23:09;20.50;99.90
20714;DHT22;10518;50.742;4.226;2023-07-31T14:25:34;20.50;99.90
20714;DHT22;10518;50.742;4.226;2023-07-31T14:28:00;20.50;99.90
20714;DHT22;10518;50.742;4.226;2023-07-31T14:30:25;20.40;99.90
20714;DHT22;10518;50.742;4.226;2023-07-31T14:32:51;20.60;99.90
20714;DHT22;10518;50.742;4.226;2023-07-31T14:35:16;20.80;99.90
20714;DHT22;10518;50.742;4.226;2023-07-31T14:37:44;20.90;99.90
20714;DHT22;10518;50.742;4.226;2023-07-31T14:40:11;20.90;99.90
20714;DHT22;10518;50.742;4.226;2023-07-31T14:42:38;20.90;99.90
20714;DHT22;10518;50.742;4.226;2023-07-31T14:45:04;20.80;99.90
20714;DHT22;10518;50.742;4.226;2023-07-31T14:47:30;20.90;99.90
20714;DHT22;10518;50.742;4.226;2023-07-31T14:49:59;20.70;99.90
20714;DHT22;10518;50.742;4.226;2023-07-31T14:52:24;20.70;99.90
20714;DHT22;10518;50.742;4.226;2023-07-31T14:54:50;20.90;99.90
20714;DHT22;10518;50.742;4.226;2023-07-31T14:57:16;20.90;99.90
20714;DHT22;10518;50.742;4.226;2023-07-31T14:59:41;20.80;99.90
20714;DHT22;10518;50.742;4.226;2023-07-31T15:02:10;20.60;99.90
20714;DHT22;10518;50.742;4.226;2023-07-31T15:04:36;20.50;99.90
20714;DHT22;10518;50.742;4.226;2023-07-31T15:07:02;20.50;99.90
20714;DHT22;10518;50.742;4.226;2023-07-31T15:09:27;20.60;99.90
20714;DHT22;10518;50.742;4.226;2023-07-31T15:11:56;20.30;99.90
20714;DHT22;10518;50.742;4.226;2023-07-31T15:14:22;20.60;99.90
20714;DHT22;10518;50.742;4.226;2023-07-31T15:16:47;20.40;99.90
20714;DHT22;10518;50.742;4.226;2023-07-31T15:19:14;20.50;99.90
20714;DHT22;10518;50.742;4.226;2023-07-31T15:21:40;20.40;99.90
20714;DHT22;10518;50.742;4.226;2023-07-31T15:24:05;20.50;99.90
20714;DHT22;10518;50.742;4.226;2023-07-31T15:26:31;20.30;99.90
20714;DHT22;10518;50.742;4.226;2023-07-31T15:29:04;20.30;99.90
20714;DHT22;10518;50.742;4.226;2023-07-31T15:31:35;20.20;99.90
20714;DHT22;10518;50.742;4.226;2023-07-31T15:34:00;20.30;99.90
20714;DHT22;10518;50.742;4.226;2023-07-31T15:36:26;20.30;99.90
20714;DHT22;10518;50.742;4.226;2023-07-31T15:38:52;20.30;99.90
20714;DHT22;10518;50.742;4.226;2023-07-31T15:41:18;20.30;99.90
20714;DHT22;10518;50.742;4.226;2023-07-31T15:43:43;20.30;99.90
20714;DHT22;10518;50.742;4.226;2023-07-31T15:46:09;20.40;99.90
20714;DHT22;10518;50.742;4.226;2023-07-31T15:48:35;20.20;99.90
20714;DHT22;10518;50.742;4.226;2023-07-31T15:51:00;20.20;99.90
20714;DHT22;10518;50.742;4.226;2023-07-31T15:53:29;20.20;99.90
20714;DHT22;10518;50.742;4.226;2023-07-31T15:55:54;20.20;99.90